Mebane, North Carolina
Current Conditions -  °F | °C
As of 12:54 AM on Thursday 29 Jan 2015 (Local Time) from KBUY Reporting Station
Clear Clear  
Wind Chill: 23°   Ceiling: Unl
Heat Index: 23°   Visibility: 10mi
Dew Point: 16°   Wind: 0mph
Humidity: 74%   Direction: NA
Pressure: 30.31"   Gusts: NA
Location:  36.1°N, 79.27°W
Report Text: KBUY 290554Z AUTO 00000KT 10SM CLR M05/M09 A3031 RMK AO2 SLP269 T10501089 10022 21056 50001
Loading
Personal Weather Stations






























Interactive Weather Map New forecast layout! Learn more

10-Day Weather Forecast

Advertisements
Track Severe Weather on mobile